Temp: 19.7°C   Baro: 1021.4mb
  Wind: 4.9mph   Dir: ESE (123°)
  Rain: 0.0mm (0.0mm/hr)
  Solar: 288W/m2  Hum: 55%
 
Cotswold Observatory Historical Data
 
Daily Summary for April 18, 2019 Units:  Metric    English   Both
Next Day »
Daily Weekly Monthly Yearly Custom
  Current: High: Low: Average:
Temperature: 19.5 °C 19.8 °C 8.7 °C 12.5 °C
Dew Point: 10.5 °C 11.7 °C 7.2 °C 8.9 °C
Humidity: 56% 91% 56% 80%
Wind Speed: 4.7km/h 27.4km/h 0.0km/h 7km/h
Wind Gust: 17.7km/h 29.0km/h - -
Wind directionSE - - ESE
Pressure: 1021.2 hPa 1021.9 hPa 1019.9 hPa -
Precipitation: 0.0 mm      
Historical Graphs
 
 
Tabular Data for April 18, 2019
Time Temperature Dew Point Pressure Wind direction Wind Speed Wind Gust Humidity Rainfall Rate (Hourly) solar
00:04 11.4 °C 8.1 °C 1019.9 hPa SSE 13.0 km/h 14.5 km/h 80% 0.0 mm 0.00 W/m2
00:09 11.4 °C 8.1 °C 1019.9 hPa SSE 6.4 km/h 8.0 km/h 80% 0.0 mm 0.00 W/m2
00:14 11.4 °C 8.1 °C 1020.2 hPa SE 4.7 km/h 12.9 km/h 80% 0.0 mm 0.00 W/m2
00:19 11.4 °C 8.1 °C 1020.2 hPa SSE 11.1 km/h 11.3 km/h 80% 0.0 mm 0.00 W/m2
00:24 11.3 °C 8.0 °C 1020.2 hPa SE 7.9 km/h 11.3 km/h 80% 0.0 mm 0.00 W/m2
00:29 11.3 °C 8.0 °C 1020.2 hPa ESE 4.7 km/h 6.4 km/h 80% 0.0 mm 0.00 W/m2
00:34 11.3 °C 8.0 °C 1020.2 hPa SE 3.2 km/h 4.8 km/h 80% 0.0 mm 0.00 W/m2
00:39 11.2 °C 8.1 °C 1020.2 hPa SE 1.4 km/h 1.6 km/h 81% 0.0 mm 0.00 W/m2
00:44 11.2 °C 8.1 °C 1020.2 hPa SE 3.2 km/h 4.8 km/h 81% 0.0 mm 0.00 W/m2
00:49 11.2 °C 8.1 °C 1020.2 hPa SE 4.7 km/h 6.4 km/h 81% 0.0 mm 0.00 W/m2
00:54 11.1 °C 8.0 °C 1020.2 hPa SE 4.7 km/h 6.4 km/h 81% 0.0 mm 0.00 W/m2
00:59 11.1 °C 8.0 °C 1020.5 hPa ESE 3.2 km/h 14.5 km/h 81% 0.0 mm 0.00 W/m2
01:04 11.1 °C 8.0 °C 1020.5 hPa SE 6.4 km/h 6.4 km/h 81% 0.0 mm 0.00 W/m2
01:09 11.1 °C 8.0 °C 1020.5 hPa ESE 4.7 km/h 12.9 km/h 81% 0.0 mm 0.00 W/m2
01:14 11.0 °C 7.9 °C 1020.5 hPa SE 3.2 km/h 12.9 km/h 81% 0.0 mm 0.00 W/m2
01:19 11.0 °C 7.9 °C 1020.5 hPa ESE 3.2 km/h 9.7 km/h 81% 0.0 mm 0.00 W/m2
01:24 11.0 °C 7.9 °C 1020.5 hPa SE 4.7 km/h 9.7 km/h 81% 0.0 mm 0.00 W/m2
01:29 11.0 °C 7.9 °C 1020.5 hPa ESE 3.2 km/h 6.4 km/h 81% 0.0 mm 0.00 W/m2
01:34 11.0 °C 7.9 °C 1020.5 hPa ESE 6.4 km/h 12.9 km/h 81% 0.0 mm 0.00 W/m2
01:39 11.0 °C 7.9 °C 1020.5 hPa SE 11.1 km/h 14.5 km/h 81% 0.0 mm 0.00 W/m2
01:44 11.0 °C 7.9 °C 1020.2 hPa SE 4.7 km/h 11.3 km/h 81% 0.0 mm 0.00 W/m2
01:49 11.0 °C 7.9 °C 1020.2 hPa SSE 6.4 km/h 8.0 km/h 81% 0.0 mm 0.00 W/m2
01:54 10.9 °C 7.8 °C 1020.5 hPa SE 4.7 km/h 11.3 km/h 81% 0.0 mm 0.00 W/m2
01:59 10.9 °C 7.8 °C 1020.5 hPa SSE 6.4 km/h 11.3 km/h 81% 0.0 mm 0.00 W/m2
02:04 10.9 °C 7.8 °C 1020.5 hPa SE 7.9 km/h 12.9 km/h 81% 0.0 mm 0.00 W/m2
02:09 10.9 °C 7.9 °C 1020.2 hPa SE 6.4 km/h 12.9 km/h 82% 0.0 mm 0.00 W/m2
02:14 10.9 °C 7.9 °C 1020.5 hPa ESE 3.2 km/h 17.7 km/h 82% 0.0 mm 0.00 W/m2
02:19 10.9 °C 7.9 °C 1020.5 hPa ESE 1.4 km/h 12.9 km/h 82% 0.0 mm 0.00 W/m2
02:24 10.9 °C 7.9 °C 1020.2 hPa ESE 4.7 km/h 11.3 km/h 82% 0.0 mm 0.00 W/m2
02:29 10.8 °C 7.9 °C 1020.2 hPa SSE 6.4 km/h 8.0 km/h 82% 0.0 mm 0.00 W/m2
02:34 10.8 °C 7.9 °C 1020.5 hPa ESE 11.1 km/h 14.5 km/h 82% 0.0 mm 0.00 W/m2
02:39 10.8 °C 7.9 °C 1020.5 hPa SE 4.7 km/h 9.7 km/h 82% 0.0 mm 0.00 W/m2
02:44 10.8 °C 7.9 °C 1020.5 hPa SE 3.2 km/h 8.0 km/h 82% 0.0 mm 0.00 W/m2
02:49 10.8 °C 7.9 °C 1020.5 hPa SE 3.2 km/h 4.8 km/h 82% 0.0 mm 0.00 W/m2
02:54 10.8 °C 7.9 °C 1020.5 hPa South 1.4 km/h 6.4 km/h 82% 0.0 mm 0.00 W/m2
02:59 10.8 °C 8.0 °C 1020.5 hPa East 3.2 km/h 9.7 km/h 83% 0.0 mm 0.00 W/m2
03:04 10.8 °C 8.0 °C 1020.5 hPa ESE 1.4 km/h 3.2 km/h 83% 0.0 mm 0.00 W/m2
03:09 10.7 °C 7.9 °C 1020.5 hPa ENE 3.2 km/h 4.8 km/h 83% 0.0 mm 0.00 W/m2
03:14 10.6 °C 7.8 °C 1020.5 hPa Calm   3.2 km/h 83% 0.0 mm 0.00 W/m2
03:19 10.4 °C 7.6 °C 1020.5 hPa East 4.7 km/h 4.8 km/h 83% 0.0 mm 0.00 W/m2
03:24 10.3 °C 7.5 °C 1020.5 hPa Calm   4.8 km/h 83% 0.0 mm 0.00 W/m2
03:29 10.2 °C 7.6 °C 1020.5 hPa ESE 11.3 km/h 11.3 km/h 84% 0.0 mm 0.00 W/m2
03:34 10.2 °C 7.6 °C 1020.5 hPa ESE 3.2 km/h 4.8 km/h 84% 0.0 mm 0.00 W/m2
03:39 10.1 °C 7.5 °C 1020.5 hPa SE 12.9 km/h 12.9 km/h 84% 0.0 mm 0.00 W/m2
03:44 10.0 °C 7.6 °C 1020.2 hPa ESE 1.4 km/h 6.4 km/h 85% 0.0 mm 0.00 W/m2
03:49 9.9 °C 7.5 °C 1020.5 hPa East 3.2 km/h 6.4 km/h 85% 0.0 mm 0.00 W/m2
03:54 9.9 °C 7.5 °C 1020.5 hPa East 1.4 km/h 3.2 km/h 85% 0.0 mm 0.00 W/m2
03:59 9.8 °C 7.4 °C 1020.5 hPa Calm   1.6 km/h 85% 0.0 mm 0.00 W/m2
04:04 9.8 °C 7.6 °C 1020.5 hPa ENE 1.4 km/h 3.2 km/h 86% 0.0 mm 0.00 W/m2
04:09 9.8 °C 7.6 °C 1020.5 hPa ESE 1.4 km/h 12.9 km/h 86% 0.0 mm 0.00 W/m2
04:14 9.7 °C 7.5 °C 1020.2 hPa ESE 3.2 km/h 4.8 km/h 86% 0.0 mm 0.00 W/m2
04:19 9.7 °C 7.5 °C 1020.2 hPa East 3.2 km/h 12.9 km/h 86% 0.0 mm 0.00 W/m2
04:24 9.7 °C 7.5 °C 1020.2 hPa East 4.7 km/h 12.9 km/h 86% 0.0 mm 0.00 W/m2
04:29 9.7 °C 7.6 °C 1020.2 hPa East 1.4 km/h 9.7 km/h 87% 0.0 mm 0.00 W/m2
04:34 9.7 °C 7.6 °C 1020.2 hPa East 3.2 km/h 9.7 km/h 87% 0.0 mm 0.00 W/m2
04:39 9.6 °C 7.5 °C 1020.2 hPa Calm   6.4 km/h 87% 0.0 mm 0.00 W/m2
04:44 9.6 °C 7.5 °C 1020.2 hPa ESE 3.2 km/h 4.8 km/h 87% 0.0 mm 0.00 W/m2
04:49 9.6 °C 7.5 °C 1020.2 hPa East 3.2 km/h 6.4 km/h 87% 0.0 mm 0.00 W/m2
04:54 9.5 °C 7.4 °C 1020.2 hPa Calm   3.2 km/h 87% 0.0 mm 0.00 W/m2
04:59 9.5 °C 7.4 °C 1020.2 hPa ESE 3.2 km/h 6.4 km/h 87% 0.0 mm 0.00 W/m2
05:04 9.4 °C 7.5 °C 1020.5 hPa Calm   4.8 km/h 88% 0.0 mm 0.00 W/m2
05:09 9.4 °C 7.5 °C 1020.5 hPa Calm     88% 0.0 mm 0.00 W/m2
05:14 9.4 °C 7.5 °C 1020.5 hPa Calm   6.4 km/h 88% 0.0 mm 0.00 W/m2
05:19 9.3 °C 7.4 °C 1020.5 hPa East 11.1 km/h 11.3 km/h 88% 0.0 mm 0.00 W/m2
05:24 9.3 °C 7.4 °C 1020.5 hPa ENE 1.4 km/h 3.2 km/h 88% 0.0 mm 0.00 W/m2
05:29 9.3 °C 7.4 °C 1020.5 hPa East 4.7 km/h 11.3 km/h 88% 0.0 mm 0.00 W/m2
05:34 9.2 °C 7.5 °C 1020.2 hPa East 1.4 km/h 6.4 km/h 89% 0.0 mm 0.00 W/m2
05:39 9.2 °C 7.5 °C 1020.5 hPa Calm   4.8 km/h 89% 0.0 mm 0.00 W/m2
05:44 9.2 °C 7.5 °C 1020.5 hPa ESE 1.4 km/h 9.7 km/h 89% 0.0 mm 0.00 W/m2
05:49 9.2 °C 7.5 °C 1020.5 hPa ENE 6.4 km/h 12.9 km/h 89% 0.0 mm 0.00 W/m2
05:54 9.2 °C 7.5 °C 1020.5 hPa East 16.1 km/h 16.1 km/h 89% 0.0 mm 0.00 W/m2
05:59 9.1 °C 7.4 °C 1020.5 hPa ESE 6.4 km/h 16.1 km/h 89% 0.0 mm 0.00 W/m2
06:04 9.1 °C 7.5 °C 1020.5 hPa ESE 6.4 km/h 12.9 km/h 90% 0.0 mm 0.00 W/m2
06:09 9.0 °C 7.4 °C 1020.5 hPa East 17.7 km/h 17.7 km/h 90% 0.0 mm 0.00 W/m2
06:14 9.0 °C 7.4 °C 1020.5 hPa ENE 3.2 km/h 11.3 km/h 90% 0.0 mm 5.00 W/m2
06:19 8.9 °C 7.3 °C 1020.5 hPa East 11.1 km/h 17.7 km/h 90% 0.0 mm 7.00 W/m2
06:24 8.9 °C 7.3 °C 1020.5 hPa ESE 13.0 km/h 19.3 km/h 90% 0.0 mm 7.00 W/m2
06:29 8.8 °C 7.2 °C 1020.5 hPa SE 3.2 km/h 12.9 km/h 90% 0.0 mm 11.00 W/m2
06:34 8.8 °C 7.2 °C 1020.5 hPa ESE 6.4 km/h 11.3 km/h 90% 0.0 mm 14.00 W/m2
06:39 8.8 °C 7.4 °C 1020.5 hPa ESE 6.4 km/h 16.1 km/h 91% 0.0 mm 18.00 W/m2
06:44 8.7 °C 7.3 °C 1020.5 hPa SE 4.7 km/h 16.1 km/h 91% 0.0 mm 23.00 W/m2
06:49 8.7 °C 7.3 °C 1020.9 hPa SE 4.7 km/h 12.9 km/h 91% 0.0 mm 26.00 W/m2
06:54 8.7 °C 7.3 °C 1020.9 hPa SE 6.4 km/h 16.1 km/h 91% 0.0 mm 32.00 W/m2
06:59 8.7 °C 7.3 °C 1020.9 hPa ESE 6.4 km/h 14.5 km/h 91% 0.0 mm 37.00 W/m2
07:04 8.7 °C 7.3 °C 1021.2 hPa ESE 14.3 km/h 16.1 km/h 91% 0.0 mm 44.00 W/m2
07:09 8.7 °C 7.3 °C 1021.2 hPa SE 13.0 km/h 17.7 km/h 91% 0.0 mm 49.00 W/m2
07:14 8.7 °C 7.3 °C 1021.2 hPa SE 4.7 km/h 16.1 km/h 91% 0.0 mm 56.00 W/m2
07:19 8.7 °C 7.3 °C 1021.2 hPa ENE 7.9 km/h 17.7 km/h 91% 0.0 mm 63.00 W/m2
07:24 8.7 °C 7.3 °C 1021.2 hPa ESE 13.0 km/h 17.7 km/h 91% 0.0 mm 70.00 W/m2
07:29 8.7 °C 7.3 °C 1021.2 hPa NE 20.9 km/h 20.9 km/h 91% 0.0 mm 79.00 W/m2
07:34 8.7 °C 7.3 °C 1021.2 hPa ENE 4.7 km/h 14.5 km/h 91% 0.0 mm 91.00 W/m2
07:39 8.7 °C 7.3 °C 1021.2 hPa East 7.9 km/h 20.9 km/h 91% 0.0 mm 104.00 W/m2
07:44 8.7 °C 7.3 °C 1021.2 hPa East 16.3 km/h 16.1 km/h 91% 0.0 mm 118.00 W/m2
07:49 8.7 °C 7.3 °C 1021.2 hPa ESE 11.1 km/h 14.5 km/h 91% 0.0 mm 137.00 W/m2
07:54 8.8 °C 7.4 °C 1021.2 hPa ENE 6.4 km/h 14.5 km/h 91% 0.0 mm 160.00 W/m2
07:59 8.8 °C 7.4 °C 1021.6 hPa East 9.7 km/h 14.5 km/h 91% 0.0 mm 179.00 W/m2
08:04 8.9 °C 7.5 °C 1021.6 hPa SE 3.2 km/h 12.9 km/h 91% 0.0 mm 192.00 W/m2
08:09 9.1 °C 7.7 °C 1021.6 hPa ESE 9.7 km/h 14.5 km/h 91% 0.0 mm 178.00 W/m2
08:14 9.1 °C 7.7 °C 1021.6 hPa East 3.2 km/h 12.9 km/h 91% 0.0 mm 169.00 W/m2
08:19 9.2 °C 7.8 °C 1021.6 hPa ESE 4.7 km/h 6.4 km/h 91% 0.0 mm 158.00 W/m2
08:24 9.2 °C 7.8 °C 1021.6 hPa ESE 9.7 km/h 16.1 km/h 91% 0.0 mm 156.00 W/m2
08:29 9.3 °C 7.7 °C 1021.6 hPa East 1.4 km/h 12.9 km/h 90% 0.0 mm 167.00 W/m2
08:34 9.4 °C 7.8 °C 1021.6 hPa ESE 4.7 km/h 9.7 km/h 90% 0.0 mm 185.00 W/m2
08:39 9.5 °C 7.9 °C 1021.6 hPa ESE 6.4 km/h 6.4 km/h 90% 0.0 mm 199.00 W/m2
08:44 9.7 °C 8.1 °C 1021.6 hPa ENE 3.2 km/h 8.0 km/h 90% 0.0 mm 223.00 W/m2
08:49 9.8 °C 8.2 °C 1021.9 hPa ENE 4.7 km/h 11.3 km/h 90% 0.0 mm 216.00 W/m2
08:54 9.9 °C 8.2 °C 1021.6 hPa ESE 12.9 km/h 12.9 km/h 89% 0.0 mm 248.00 W/m2
08:59 10.1 °C 8.4 °C 1021.6 hPa East 3.2 km/h 9.7 km/h 89% 0.0 mm 260.00 W/m2
09:04 10.3 °C 8.6 °C 1021.6 hPa SE 3.2 km/h 4.8 km/h 89% 0.0 mm 292.00 W/m2
09:09 10.5 °C 8.8 °C 1021.6 hPa ENE 3.2 km/h 4.8 km/h 89% 0.0 mm 287.00 W/m2
09:14 10.7 °C 8.8 °C 1021.6 hPa ESE 3.2 km/h 6.4 km/h 88% 0.0 mm 276.00 W/m2
09:19 10.9 °C 9.0 °C 1021.9 hPa ESE 6.4 km/h 6.4 km/h 88% 0.0 mm 264.00 W/m2
09:24 11.2 °C 9.3 °C 1021.9 hPa ENE 1.4 km/h 4.8 km/h 88% 0.0 mm 283.00 W/m2
09:29 11.4 °C 9.3 °C 1021.9 hPa SSW 3.2 km/h 8.0 km/h 87% 0.0 mm 318.00 W/m2
09:34 11.7 °C 9.4 °C 1021.9 hPa ENE 9.7 km/h 9.7 km/h 86% 0.0 mm 366.00 W/m2
09:39 11.8 °C 9.4 °C 1021.9 hPa ESE 3.2 km/h 11.3 km/h 85% 0.0 mm 404.00 W/m2
09:44 12.0 °C 9.4 °C 1021.9 hPa ENE 6.4 km/h 14.5 km/h 84% 0.0 mm 396.00 W/m2
09:49 12.2 °C 9.6 °C 1021.9 hPa NE 3.2 km/h 12.9 km/h 84% 0.0 mm 399.00 W/m2
09:54 12.5 °C 9.7 °C 1021.9 hPa ESE 7.9 km/h 12.9 km/h 83% 0.0 mm 381.00 W/m2
09:59 12.6 °C 9.6 °C 1021.9 hPa ESE 4.7 km/h 17.7 km/h 82% 0.0 mm 399.00 W/m2
10:04 12.8 °C 9.8 °C 1021.9 hPa East 4.7 km/h 12.9 km/h 82% 0.0 mm 445.00 W/m2
10:09 12.9 °C 9.7 °C 1021.9 hPa ENE 7.9 km/h 11.3 km/h 81% 0.0 mm 418.00 W/m2
10:14 13.1 °C 9.9 °C 1021.9 hPa ENE 3.2 km/h 6.4 km/h 81% 0.0 mm 396.00 W/m2
10:19 13.3 °C 10.1 °C 1021.9 hPa ENE 4.7 km/h 8.0 km/h 81% 0.0 mm 380.00 W/m2
10:24 13.5 °C 10.1 °C 1021.9 hPa East 14.5 km/h 14.5 km/h 80% 0.0 mm 378.00 W/m2
10:29 13.7 °C 10.1 °C 1021.9 hPa East 4.7 km/h 12.9 km/h 79% 0.0 mm 383.00 W/m2
10:34 13.8 °C 10.2 °C 1021.9 hPa ESE 1.4 km/h 11.3 km/h 79% 0.0 mm 352.00 W/m2
10:39 14.0 °C 10.2 °C 1021.9 hPa ESE 4.7 km/h 9.7 km/h 78% 0.0 mm 320.00 W/m2
10:44 14.2 °C 10.4 °C 1021.9 hPa SE 3.2 km/h 11.3 km/h 78% 0.0 mm 316.00 W/m2
10:49 14.3 °C 10.5 °C 1021.9 hPa SE 1.4 km/h 8.0 km/h 78% 0.0 mm 338.00 W/m2
10:54 14.3 °C 10.3 °C 1021.9 hPa East 4.7 km/h 14.5 km/h 77% 0.0 mm 380.00 W/m2
10:59 14.4 °C 10.4 °C 1021.9 hPa East 4.7 km/h 19.3 km/h 77% 0.0 mm 408.00 W/m2
11:04 14.6 °C 10.6 °C 1021.9 hPa Calm   9.7 km/h 77% 0.0 mm 401.00 W/m2
11:09 14.8 °C 10.4 °C 1021.9 hPa ESE 13.0 km/h 16.1 km/h 75% 0.0 mm 432.00 W/m2
11:14 14.8 °C 10.4 °C 1021.9 hPa East 14.3 km/h 29.0 km/h 75% 0.0 mm 455.00 W/m2
11:19 14.8 °C 10.6 °C 1021.9 hPa ESE 13.0 km/h 16.1 km/h 76% 0.0 mm 485.00 W/m2
11:24 14.9 °C 10.5 °C 1021.6 hPa ESE 4.7 km/h 17.7 km/h 75% 0.0 mm 513.00 W/m2
11:29 15.2 °C 10.8 °C 1021.6 hPa ESE 9.7 km/h 19.3 km/h 75% 0.0 mm 550.00 W/m2
11:34 15.4 °C 11.0 °C 1021.6 hPa ENE 4.7 km/h 8.0 km/h 75% 0.0 mm 538.00 W/m2
11:39 15.6 °C 11.0 °C 1021.6 hPa ESE 9.7 km/h 14.5 km/h 74% 0.0 mm 503.00 W/m2
11:44 15.7 °C 10.9 °C 1021.6 hPa ESE 6.4 km/h 17.7 km/h 73% 0.0 mm 520.00 W/m2
11:49 15.9 °C 11.1 °C 1021.6 hPa East 11.1 km/h 16.1 km/h 73% 0.0 mm 529.00 W/m2
11:54 16.0 °C 11.0 °C 1021.6 hPa East 6.4 km/h 16.1 km/h 72% 0.0 mm 515.00 W/m2
11:59 16.0 °C 11.0 °C 1021.6 hPa ESE 11.1 km/h 17.7 km/h 72% 0.0 mm 533.00 W/m2
12:04 16.2 °C 11.1 °C 1021.6 hPa SSE 6.4 km/h 12.9 km/h 72% 0.0 mm 605.00 W/m2
12:09 16.4 °C 11.3 °C 1021.6 hPa East 6.4 km/h 9.7 km/h 72% 0.0 mm 626.00 W/m2
12:14 16.6 °C 11.3 °C 1021.6 hPa East 6.4 km/h 20.9 km/h 71% 0.0 mm 642.00 W/m2
12:19 16.7 °C 11.2 °C 1021.6 hPa ESE 13.0 km/h 24.1 km/h 70% 0.0 mm 631.00 W/m2
12:24 16.7 °C 11.2 °C 1021.6 hPa ESE 7.9 km/h 19.3 km/h 70% 0.0 mm 624.00 W/m2
12:29 16.9 °C 11.4 °C 1021.6 hPa ESE 6.4 km/h 6.4 km/h 70% 0.0 mm 606.00 W/m2
12:34 17.2 °C 11.2 °C 1021.6 hPa ESE 17.7 km/h 24.1 km/h 68% 0.0 mm 575.00 W/m2
12:39 17.0 °C 11.3 °C 1021.6 hPa ESE 9.7 km/h 16.1 km/h 69% 0.0 mm 626.00 W/m2
12:44 17.0 °C 11.3 °C 1021.6 hPa ESE 6.4 km/h 22.5 km/h 69% 0.0 mm 580.00 W/m2
12:49 17.1 °C 11.4 °C 1021.6 hPa ESE 14.3 km/h 19.3 km/h 69% 0.0 mm 508.00 W/m2
12:54 17.2 °C 11.2 °C 1021.6 hPa ESE 3.2 km/h 11.3 km/h 68% 0.0 mm 476.00 W/m2
12:59 17.5 °C 11.5 °C 1021.6 hPa SSE 7.9 km/h 16.1 km/h 68% 0.0 mm 439.00 W/m2
13:04 17.5 °C 11.7 °C 1021.2 hPa East 16.3 km/h 16.1 km/h 69% 0.0 mm 541.00 W/m2
13:09 17.5 °C 11.5 °C 1021.2 hPa ESE 9.7 km/h 16.1 km/h 68% 0.0 mm 471.00 W/m2
13:14 17.7 °C 11.7 °C 1021.2 hPa ESE 14.3 km/h 17.7 km/h 68% 0.0 mm 441.00 W/m2
13:19 17.6 °C 11.2 °C 1021.2 hPa East 16.3 km/h 20.9 km/h 66% 0.0 mm 436.00 W/m2
13:24 17.6 °C 11.2 °C 1021.2 hPa ESE 11.1 km/h 22.5 km/h 66% 0.0 mm 390.00 W/m2
13:29 17.6 °C 11.2 °C 1021.2 hPa East 6.4 km/h 12.9 km/h 66% 0.0 mm 396.00 W/m2
13:34 17.8 °C 11.1 °C 1021.2 hPa SE 4.7 km/h 20.9 km/h 65% 0.0 mm 519.00 W/m2
13:39 17.9 °C 11.2 °C 1021.2 hPa South 6.4 km/h 22.5 km/h 65% 0.0 mm 592.00 W/m2
13:44 18.1 °C 11.6 °C 1021.2 hPa East 11.1 km/h 11.3 km/h 66% 0.0 mm 622.00 W/m2
13:49 18.3 °C 11.6 °C 1021.6 hPa ESE 6.4 km/h 16.1 km/h 65% 0.0 mm 673.00 W/m2
13:54 18.4 °C 11.5 °C 1021.6 hPa ESE 9.7 km/h 19.3 km/h 64% 0.0 mm 700.00 W/m2
13:59 18.4 °C 11.5 °C 1021.6 hPa ESE 22.5 km/h 22.5 km/h 64% 0.0 mm 661.00 W/m2
14:04 18.7 °C 11.5 °C 1021.2 hPa East 11.1 km/h 20.9 km/h 63% 0.0 mm 624.00 W/m2
14:09 18.7 °C 11.3 °C 1021.6 hPa SSE 22.7 km/h 22.5 km/h 62% 0.0 mm 643.00 W/m2
14:14 18.7 °C 11.3 °C 1021.6 hPa SE 11.1 km/h 20.9 km/h 62% 0.0 mm 515.00 W/m2
14:19 18.8 °C 11.1 °C 1021.6 hPa SE 14.3 km/h 19.3 km/h 61% 0.0 mm 621.00 W/m2
14:24 18.8 °C 11.1 °C 1021.6 hPa ESE 11.1 km/h 16.1 km/h 61% 0.0 mm 622.00 W/m2
14:29 18.9 °C 11.0 °C 1021.6 hPa SSE 9.7 km/h 24.1 km/h 60% 0.0 mm 603.00 W/m2
14:34 19.0 °C 11.1 °C 1021.6 hPa SE 16.3 km/h 17.7 km/h 60% 0.0 mm 587.00 W/m2
14:39 18.8 °C 10.9 °C 1021.6 hPa SE 14.3 km/h 17.7 km/h 60% 0.0 mm 378.00 W/m2
14:44 18.9 °C 10.7 °C 1021.2 hPa SSE 7.9 km/h 20.9 km/h 59% 0.0 mm 603.00 W/m2
14:49 19.3 °C 10.6 °C 1021.2 hPa ESE 27.4 km/h 27.4 km/h 57% 0.0 mm 580.00 W/m2
14:54 19.3 °C 10.8 °C 1021.2 hPa SE 13.0 km/h 20.9 km/h 58% 0.0 mm 578.00 W/m2
14:59 19.3 °C 10.6 °C 1021.2 hPa SSE 16.3 km/h 16.1 km/h 57% 0.0 mm 513.00 W/m2
15:04 19.5 °C 11.0 °C 1021.2 hPa SE 17.7 km/h 17.7 km/h 58% 0.0 mm 258.00 W/m2
15:09 19.7 °C 10.9 °C 1021.2 hPa ESE 9.7 km/h 19.3 km/h 57% 0.0 mm 285.00 W/m2
15:14 19.8 °C 10.8 °C 1021.2 hPa ESE 11.1 km/h 24.1 km/h 56% 0.0 mm 272.00 W/m2
15:19 19.5 °C 10.5 °C 1021.2 hPa SE 14.3 km/h 17.7 km/h 56% 0.0 mm 334.00 W/m2
15:23 19.6 °C 10.6 °C 1021.2 hPa ESE 9.7 km/h 17.7 km/h 56% 0.0 mm 227.00 W/m2
15:34 19.6 °C 10.6 °C 1021.2 hPa SE 17.7 km/h 19.3 km/h 56% 0.0 mm 267.00 W/m2
15:39 19.5 °C 10.5 °C 1021.2 hPa SE 4.7 km/h 17.7 km/h 56% 0.0 mm 265.00 W/m2